Ridgely, TN (38080)

2:27 AM CST on February 09, 2016 (GMT -0600)
Reelfoot Lake Cabins Project | | Change Station
CLOSE
Current Station
Personal Weather Station
Location: Tiptonville, TN
Elevation: 279 ft
Nearby Weather Stations
Active Advisory: Flood Advisory

Elev 279 ft 36.35 °N, 89.41 °W | Updated 17 seconds ago

Overcast
Overcast
30.7 °F
Feels Like 24 °F
N
6.8
Wind Variable Wind from West

Today
High -- | Low -- °F
--% Chance of Precip.
Yesterday
High -- | Low -- °F
Precip. -- in
Pressure 29.95 in
Visibility 10.0 miles
Clouds Few 3300 ft
Overcast 3900 ft
Windchill 24 °F
Dew Point 20 °F
Humidity 65%
Rainfall 0.00 in
Snow Depth Not available.
6:52 AM 5:32 PM
New Moon, 1% visible
METAR KDYR 090815Z AUTO 30013KT 10SM FEW033 OVC039 M01/M08 A2995 RMK AO1
Pressure 29.95 in
Visibility 10.0 miles
Clouds Few 3300 ft
Overcast 3900 ft
Windchill 24 °F
Dew Point 20 °F
Humidity 65%
Rainfall 0.00 in
Snow Depth Not available.
6:52 AM 5:32 PM
New Moon, 1% visible
METAR KDYR 090815Z AUTO 30013KT 10SM FEW033 OVC039 M01/M08 A2995 RMK AO1

10-Day Weather Forecast

Almanac

Astronomy

Feb. 09, 2016 Rise Set
Actual Time
Civil Twilight
Nautical Twilight
Astronomical Twilight
Moon
Length of Visible Light
Length of Day
Tomorrow will be .
, % of the Moon is Illuminated

Today's Extremes

State Highs State Lows

Community

WunderPhotos

Upload Photos

1,891,571 photos uploaded!

WunderBlog® & News

Nearby

Air Quality

  Air Quality AQ Index Pollutant
Not available.

Snow Depth

Station Depth Elevation

Earthquake Activity

City Distance Mag. Time & Date
Minimum magnitude displayed is 2.5.

Coastal Water Temperatures

Place Temperature

Stations

Nearby Weather Stations

Station Location Temp. Windchill Dew Point Humidity Wind Precip. Elev Updated Type
                   

Watches & Warnings

Flood Advisory
Issued: 9:18 PM CST Feb. 8, 2016 – National Weather Service

The Flood Advisory continues for
the Mississippi River at Caruthersville
* until Saturday February 13.
* At 09 PM Monday the stage was 28.4 feet.
* Flood stage is 32.0 feet.
* Forecast... the river will rise to near 29.8 feet Thursday February
11.
* At 30.0 feet... sloughs are flooding fields just north of Chisholm
Lake, Tennessee.


Lat... Lon 3623 8977 3623 8948 3606 8950 3595 8948
      3582 8956 3582 8985